KMSS/MSS METAR and TAF weather

Enter ICAO airport designator
Station Type Date Time Source
KMSS METAR 2020/09/19 20:53 UTC NOAA

KMSS 192053Z AUTO 29007KT 10SM CLR 13/M01 A3040 RMK AO2 SLP298 T01281011 58009


Station Type Date Time Source
KMSS Decoded METAR 2020/09/19 20:53 UTC NOAA

MASSENA INTERNATIONAL -RICHARDS FLD, NY, United States (KMSS) 44-56N 074-51W 66M
Sep 19, 2020 - 04:53 PM EDT / 2020.09.19 2053 UTC
Wind: from the WNW (290 degrees) at 8 MPH (7 KT):0
Visibility: 10 mile(s):0
Sky conditions: clear
Temperature: 55.0 F (12.8 C)
Dew Point: 30.0 F (-1.1 C)
Relative Humidity: 38%
Pressure (altimeter): 30.4 in. Hg (1029 hPa)
Pressure tendency: 0.03 inches (0.9 hPa) lower than three hours ago
ob: KMSS 192053Z AUTO 29007KT 10SM CLR 13/M01 A3040 RMK AO2 SLP298 T01281011 58009
cycle: 21

Station Type Date Time Source
KMSS TAF 2020/09/19 18:30 UTC NOAA

TAF KMSS 191727Z 1918/2018 31008KT P6SM FEW250
FM192300 VRB04KT P6SM FEW250

Example: see airport list